createdAt,value
2018-08-04T00:00:46.138Z,66.79
2018-08-04T00:01:25.104Z,66.60
2018-08-04T00:04:11.222Z,67.18
2018-08-04T00:05:11.233Z,67.18
2018-08-04T00:06:11.076Z,67.28
2018-08-04T00:07:11.112Z,67.08
2018-08-04T00:08:10.933Z,67.28
2018-08-04T00:09:10.931Z,67.18
2018-08-04T00:10:10.823Z,67.47
2018-08-04T00:11:10.730Z,67.66
2018-08-04T00:12:10.632Z,67.08
2018-08-04T00:14:52.731Z,67.18
2018-08-04T00:15:52.791Z,67.37
2018-08-04T00:27:46.886Z,67.66
2018-08-04T00:28:46.891Z,68.35
2018-08-04T00:29:46.730Z,68.05
2018-08-04T00:30:46.747Z,68.54
2018-08-04T00:31:46.568Z,68.15
2018-08-04T00:32:46.605Z,68.25
2018-08-04T00:33:46.422Z,68.15
2018-08-04T00:34:46.425Z,68.35
2018-08-04T00:35:46.311Z,68.05
2018-08-04T00:36:46.294Z,68.44
2018-08-04T00:37:46.128Z,68.25
2018-08-04T00:38:46.142Z,68.63
2018-08-04T00:39:45.987Z,68.63
2018-08-04T00:40:45.985Z,69.02
2018-08-04T00:41:45.906Z,68.63
2018-08-04T00:42:45.865Z,68.93
2018-08-04T00:43:45.703Z,68.35
2018-08-04T00:44:45.671Z,68.54
2018-08-04T00:45:45.563Z,68.93
2018-08-04T00:48:27.828Z,68.93
2018-08-04T00:49:29.831Z,68.93
2018-08-04T00:50:27.593Z,69.02
2018-08-04T00:51:27.632Z,68.63
2018-08-04T00:52:27.446Z,69.32
2018-08-04T00:53:27.463Z,69.32
2018-08-04T00:54:27.313Z,68.83
2018-08-04T00:55:27.358Z,69.12
2018-08-04T01:18:09.376Z,70.06
2018-08-04T01:19:09.201Z,70.06
2018-08-04T01:20:09.155Z,70.25
2018-08-04T01:21:09.029Z,69.96
2018-08-04T01:22:09.107Z,70.64
2018-08-04T01:23:08.930Z,70.54
2018-08-04T01:26:11.757Z,70.54
2018-08-04T01:27:12.724Z,70.35
2018-08-04T01:28:11.644Z,70.35
2018-08-04T01:29:11.549Z,70.54
2018-08-04T01:30:11.456Z,70.54
2018-08-04T01:31:11.393Z,70.64
2018-08-04T01:32:11.371Z,70.64
2018-08-04T01:33:11.278Z,70.54
2018-08-04T01:34:11.243Z,70.54
2018-08-04T01:35:11.105Z,70.73
2018-08-04T01:36:11.003Z,70.41
2018-08-04T01:37:10.943Z,70.90
2018-08-04T01:38:10.870Z,70.93
2018-08-04T01:39:10.790Z,70.06
2018-08-04T01:40:10.702Z,70.25
2018-08-04T01:41:10.633Z,70.03
2018-08-04T01:42:10.552Z,69.96
2018-08-04T01:43:10.516Z,69.83
2018-08-04T01:44:10.410Z,69.67
2018-08-04T01:46:52.761Z,69.28
2018-08-04T01:47:52.756Z,69.44
2018-08-04T01:48:52.627Z,69.64
2018-08-04T01:49:52.555Z,69.83
2018-08-04T01:50:52.460Z,69.24
2018-08-04T01:53:34.776Z,69.83
2018-08-04T01:54:34.784Z,69.44
2018-08-04T01:55:34.619Z,69.24
2018-08-04T01:56:34.559Z,69.73
2018-08-04T01:57:34.462Z,69.64
2018-08-04T01:58:34.416Z,69.44
2018-08-04T01:59:34.329Z,69.60
2018-08-04T02:00:34.249Z,69.64
2018-08-04T02:01:34.220Z,69.79
2018-08-04T02:02:34.101Z,69.79
2018-08-04T02:03:34.365Z,69.99
2018-08-04T02:04:34.451Z,69.79
2018-08-04T02:07:58.789Z,70.67
2018-08-04T02:08:58.704Z,70.86
2018-08-04T02:09:58.638Z,70.47
2018-08-04T02:10:58.564Z,70.96
2018-08-04T02:11:58.474Z,70.28
2018-08-04T02:12:58.406Z,71.34
2018-08-04T02:13:58.317Z,71.06
2018-08-04T02:14:58.273Z,70.76
2018-08-04T02:15:58.176Z,70.28
2018-08-04T02:16:58.096Z,70.28
2018-08-04T02:17:58.020Z,70.37
2018-08-04T02:18:57.948Z,70.67
2018-08-04T02:19:57.915Z,70.92
2018-08-04T02:20:57.805Z,70.73
2018-08-04T02:21:57.724Z,70.76
2018-08-04T02:22:57.644Z,70.63
2018-08-04T02:23:57.570Z,70.73
2018-08-04T02:24:57.521Z,70.92
2018-08-04T02:25:57.414Z,71.22
2018-08-04T02:28:39.794Z,71.89
2018-08-04T02:29:39.723Z,71.41
2018-08-04T02:30:39.675Z,71.41
2018-08-04T02:31:39.557Z,71.31
2018-08-04T02:32:39.498Z,71.41
2018-08-04T02:35:21.842Z,71.89
2018-08-04T02:36:21.717Z,71.89
2018-08-04T02:37:21.618Z,71.50
2018-08-04T02:38:21.558Z,72.18
2018-08-04T02:39:21.511Z,71.60
2018-08-04T02:40:21.433Z,71.60
2018-08-04T02:41:21.331Z,71.70
2018-08-04T02:44:03.278Z,71.70
2018-08-04T02:45:04.230Z,71.50
2018-08-04T02:46:03.156Z,71.70
2018-08-04T02:47:03.060Z,71.99
2018-08-04T02:48:02.993Z,72.18
2018-08-04T02:50:45.328Z,72.15
2018-08-04T02:51:45.212Z,71.86
2018-08-04T02:52:45.149Z,72.05
2018-08-04T02:55:27.302Z,71.70
2018-08-04T02:56:27.251Z,71.60
2018-08-04T02:57:27.132Z,72.05
2018-08-04T02:58:27.182Z,72.24
2018-08-04T02:59:26.985Z,72.44
2018-08-04T03:00:26.955Z,72.53
2018-08-04T03:01:26.833Z,72.44
2018-08-04T03:02:26.781Z,72.24
2018-08-04T03:03:26.683Z,72.92
2018-08-04T03:04:26.665Z,72.92
2018-08-04T03:05:26.568Z,72.73
2018-08-04T03:06:26.467Z,72.63
2018-08-04T03:07:26.392Z,72.24
2018-08-04T03:08:26.382Z,72.53
2018-08-04T03:09:26.239Z,72.83
2018-08-04T03:10:26.218Z,72.53
2018-08-04T03:11:26.098Z,72.53
2018-08-04T03:14:08.288Z,72.83
2018-08-04T03:15:08.230Z,72.83
2018-08-04T03:16:08.164Z,73.21
2018-08-04T03:17:08.109Z,72.69
2018-08-04T03:18:07.991Z,72.92
2018-08-04T03:19:07.947Z,72.92
2018-08-04T03:20:07.842Z,73.08
2018-08-04T03:21:07.781Z,73.18
2018-08-04T03:22:07.685Z,73.18
2018-08-04T03:23:07.641Z,72.60
2018-08-04T03:24:07.560Z,72.53
2018-08-04T03:25:07.487Z,73.21
2018-08-04T03:26:07.384Z,72.60
2018-08-04T03:27:07.343Z,72.73
2018-08-04T03:28:07.248Z,72.79
2018-08-04T03:30:49.345Z,72.02
2018-08-04T03:31:49.258Z,71.82
2018-08-04T03:32:49.198Z,71.72
2018-08-04T03:33:49.077Z,71.53
2018-08-04T03:34:49.006Z,71.62
2018-08-04T03:35:48.972Z,71.44
2018-08-04T03:36:48.846Z,71.82
2018-08-04T03:37:48.778Z,72.21
2018-08-04T03:38:48.841Z,71.53
2018-08-04T03:39:48.616Z,71.72
2018-08-04T03:40:48.543Z,71.62
2018-08-04T03:41:48.531Z,71.82
2018-08-04T03:42:48.377Z,71.53
2018-08-04T03:43:48.331Z,71.53
2018-08-04T03:44:48.235Z,71.72
2018-08-04T03:45:48.169Z,72.40
2018-08-04T03:46:48.134Z,72.40
2018-08-04T03:47:48.008Z,72.69
2018-08-04T03:48:47.937Z,72.60
2018-08-04T03:49:47.861Z,72.30
2018-08-04T03:50:47.784Z,72.40
2018-08-04T03:51:47.732Z,72.50
2018-08-04T03:52:47.652Z,72.50
2018-08-04T03:53:47.585Z,72.40
2018-08-04T03:54:47.482Z,72.11
2018-08-04T03:55:47.404Z,72.60
2018-08-04T03:56:47.331Z,72.50
2018-08-04T03:57:47.280Z,72.21
2018-08-04T03:58:47.182Z,71.62
2018-08-04T03:59:47.322Z,72.21
2018-08-04T04:00:47.014Z,71.62
2018-08-04T04:01:46.977Z,72.21
2018-08-04T04:02:46.901Z,72.21
2018-08-04T04:05:28.918Z,72.08
2018-08-04T04:06:28.751Z,72.46
2018-08-04T04:07:28.647Z,72.50
2018-08-04T04:08:28.631Z,72.56
2018-08-04T04:09:28.511Z,72.36
2018-08-04T04:12:10.858Z,72.11
2018-08-04T04:13:10.757Z,72.21
2018-08-04T04:14:10.661Z,71.72
2018-08-04T04:15:10.607Z,71.82
2018-08-04T04:16:10.510Z,72.17
2018-08-04T04:17:10.449Z,72.08
2018-08-04T04:18:10.389Z,72.27
2018-08-04T04:19:10.359Z,72.08
2018-08-04T04:20:10.238Z,72.27
2018-08-04T04:22:52.313Z,72.08
2018-08-04T04:23:52.266Z,71.88
2018-08-04T04:24:52.159Z,71.98
2018-08-04T04:25:52.113Z,71.50
2018-08-04T04:26:52.008Z,71.53
2018-08-04T04:29:34.317Z,69.89
2018-08-04T04:30:34.273Z,70.56
2018-08-04T04:31:34.163Z,70.56
2018-08-04T04:34:16.340Z,70.56
2018-08-04T04:35:16.247Z,70.56
2018-08-04T04:36:16.189Z,69.98
2018-08-04T04:37:16.095Z,69.89
2018-08-04T04:38:16.009Z,69.89
2018-08-04T04:39:15.941Z,69.69
2018-08-04T04:40:15.858Z,68.91
2018-08-04T04:41:15.814Z,69.01
2018-08-04T04:42:15.713Z,68.91
2018-08-04T04:43:15.650Z,68.53
2018-08-04T04:44:15.554Z,68.63
2018-08-04T04:45:16.496Z,68.73
2018-08-04T04:46:15.419Z,68.43
2018-08-04T04:47:15.446Z,69.40
2018-08-04T04:48:15.279Z,68.73
2018-08-04T04:49:15.192Z,68.33
2018-08-04T04:50:15.109Z,69.40
2018-08-04T04:51:16.052Z,69.21
2018-08-04T04:52:14.953Z,68.43
2018-08-04T04:54:56.845Z,68.53
2018-08-04T04:55:57.769Z,68.82
2018-08-04T04:56:56.802Z,69.01
2018-08-04T04:57:56.624Z,69.21
2018-08-04T04:58:56.547Z,68.91
2018-08-04T05:01:38.852Z,68.73
2018-08-04T05:02:38.777Z,68.43
2018-08-04T05:03:38.717Z,68.53
2018-08-04T05:06:20.856Z,69.31
2018-08-04T05:07:20.802Z,68.73
2018-08-04T05:08:20.704Z,68.63
2018-08-04T05:09:20.609Z,68.91
2018-08-04T05:10:20.620Z,68.63
2018-08-04T05:13:02.876Z,68.53
2018-08-04T05:14:02.776Z,68.43
2018-08-04T05:15:02.686Z,68.73
2018-08-04T05:16:02.617Z,68.82
2018-08-04T05:17:02.591Z,68.05
2018-08-04T05:18:02.468Z,68.47
2018-08-04T05:19:02.375Z,67.98
2018-08-04T05:20:02.366Z,67.60
2018-08-04T05:21:02.229Z,67.60
2018-08-04T05:22:02.261Z,67.40
2018-08-04T05:23:02.076Z,67.50
2018-08-04T05:24:02.016Z,67.30
2018-08-04T05:25:01.928Z,67.69
2018-08-04T05:26:01.861Z,67.21
2018-08-04T05:27:01.800Z,66.72
2018-08-04T05:28:01.721Z,66.92
2018-08-04T05:29:01.617Z,67.40
2018-08-04T05:30:01.554Z,67.40
2018-08-04T05:31:01.493Z,67.30
2018-08-04T05:32:01.444Z,67.40
2018-08-04T05:33:01.319Z,67.50
2018-08-04T05:34:01.254Z,67.02
2018-08-04T05:35:01.181Z,67.50
2018-08-04T05:37:43.356Z,67.50
2018-08-04T05:38:43.270Z,67.50
2018-08-04T05:39:43.186Z,67.11
2018-08-04T05:42:25.386Z,67.34
2018-08-04T05:45:07.341Z,66.95
2018-08-04T05:46:07.286Z,67.21
2018-08-04T05:47:07.215Z,67.44
2018-08-04T05:48:07.172Z,67.05
2018-08-04T05:49:07.036Z,67.92
2018-08-04T05:51:49.354Z,67.14
2018-08-04T05:52:50.318Z,67.05
2018-08-04T05:53:49.194Z,66.85
2018-08-04T05:54:49.141Z,66.75
2018-08-04T05:55:49.053Z,67.05
2018-08-04T05:56:48.981Z,67.05
2018-08-04T05:57:48.970Z,66.66
2018-08-04T06:00:30.845Z,66.66
2018-08-04T06:01:30.790Z,67.14
2018-08-04T06:02:30.713Z,66.66
2018-08-04T06:03:31.644Z,66.27
2018-08-04T06:04:30.551Z,66.27
2018-08-04T06:05:30.484Z,66.27
2018-08-04T06:06:30.403Z,66.47
2018-08-04T06:07:30.338Z,66.95
2018-08-04T06:08:30.276Z,66.47
2018-08-04T06:09:30.205Z,67.05
2018-08-04T06:10:30.115Z,66.27
2018-08-04T06:11:30.023Z,66.17
2018-08-04T06:12:29.959Z,65.92
2018-08-04T06:13:30.949Z,66.08
2018-08-04T06:14:29.807Z,65.98
2018-08-04T06:15:29.731Z,65.30
2018-08-04T06:16:29.643Z,65.98
2018-08-04T06:17:29.589Z,65.89
2018-08-04T06:18:29.560Z,65.53
2018-08-04T06:19:29.429Z,65.72
2018-08-04T06:20:29.362Z,65.05
2018-08-04T06:21:29.293Z,64.37
2018-08-04T06:22:29.210Z,64.69
2018-08-04T06:23:29.154Z,64.01
2018-08-04T06:24:29.093Z,63.91
2018-08-04T06:27:11.366Z,63.17
2018-08-04T06:29:53.397Z,62.81
2018-08-04T06:30:53.285Z,62.07
2018-08-04T06:31:53.272Z,61.77
2018-08-04T06:32:53.134Z,61.65
2018-08-04T06:33:53.075Z,62.71
2018-08-04T06:34:53.123Z,62.68
2018-08-04T06:35:52.934Z,62.68
2018-08-04T06:36:52.842Z,62.13
2018-08-04T06:37:52.770Z,61.94
2018-08-04T06:38:52.702Z,62.32
2018-08-04T06:39:52.711Z,62.26
2018-08-04T06:40:52.569Z,62.26
2018-08-04T06:41:52.481Z,61.65
2018-08-04T06:42:52.404Z,61.38
2018-08-04T06:43:52.338Z,61.45
2018-08-04T06:44:52.264Z,62.04
2018-08-04T06:45:52.221Z,62.13
2018-08-04T06:48:34.368Z,62.52
2018-08-04T06:49:34.316Z,62.52
2018-08-04T06:50:34.266Z,62.78
2018-08-04T06:53:16.366Z,62.04
2018-08-04T06:54:16.315Z,62.04
2018-08-04T06:55:16.264Z,61.55
2018-08-04T06:56:16.161Z,61.55
2018-08-04T06:57:16.112Z,61.48
2018-08-04T06:58:16.028Z,61.45
2018-08-04T06:59:15.937Z,61.58
2018-08-04T07:01:57.910Z,59.50
2018-08-04T07:02:58.271Z,57.42
2018-08-04T07:03:58.404Z,57.06
2018-08-04T07:04:57.656Z,56.67
2018-08-04T07:05:57.619Z,56.79
2018-08-04T07:06:57.520Z,56.57
2018-08-04T07:07:57.433Z,55.72
2018-08-04T07:08:57.370Z,56.12
2018-08-04T07:09:57.284Z,57.56
2018-08-04T07:10:57.256Z,58.92
2018-08-04T07:11:57.147Z,57.97
2018-08-04T07:12:57.089Z,58.00
2018-08-04T07:13:57.006Z,57.61
2018-08-04T07:14:56.942Z,57.32
2018-08-04T07:15:56.895Z,56.86
2018-08-04T07:16:56.813Z,56.18
2018-08-04T07:17:56.770Z,56.37
2018-08-04T07:18:56.648Z,56.27
2018-08-04T07:19:56.568Z,55.46
2018-08-04T07:20:56.542Z,54.87
2018-08-04T07:21:56.447Z,53.56
2018-08-04T07:22:57.405Z,52.78
2018-08-04T07:23:56.331Z,52.31
2018-08-04T07:24:56.205Z,51.56
2018-08-04T07:25:56.147Z,50.05
2018-08-04T07:26:56.270Z,49.29
2018-08-04T07:27:56.015Z,48.21
2018-08-04T07:28:56.002Z,47.94
2018-08-04T07:29:55.853Z,48.70
2018-08-04T07:30:55.792Z,48.60
2018-08-04T07:31:55.750Z,49.07
2018-08-04T07:32:55.642Z,49.53
2018-08-04T07:33:55.568Z,49.14
2018-08-04T07:34:55.545Z,50.12
2018-08-04T07:35:55.433Z,50.51
2018-08-04T07:36:55.384Z,51.14
2018-08-04T07:37:55.319Z,51.41
2018-08-04T07:38:55.238Z,52.00
2018-08-04T07:39:55.152Z,52.48
2018-08-04T07:42:37.417Z,53.17
2018-08-04T07:43:37.344Z,51.82
2018-08-04T07:44:37.261Z,50.68
2018-08-04T07:45:37.193Z,50.12
2018-08-04T07:46:37.115Z,49.46
2018-08-04T07:47:37.102Z,48.90
2018-08-04T07:48:36.986Z,48.90
2018-08-04T07:49:36.909Z,48.31
2018-08-04T07:50:36.832Z,48.46
2018-08-04T07:51:36.771Z,47.85
2018-08-04T07:52:36.708Z,47.94
2018-08-04T07:53:36.714Z,46.44
2018-08-04T07:54:36.623Z,45.59
2018-08-04T07:57:18.396Z,46.54
2018-08-04T07:58:18.393Z,45.29
2018-08-04T07:59:18.257Z,45.56
2018-08-04T08:02:00.406Z,47.30
2018-08-04T08:03:00.353Z,46.54
2018-08-04T08:04:00.295Z,46.17
2018-08-04T08:05:00.255Z,45.76
2018-08-04T08:06:00.141Z,46.05
2018-08-04T08:07:00.196Z,46.17
2018-08-04T08:07:59.999Z,45.70
2018-08-04T08:09:00.959Z,44.33
2018-08-04T08:09:59.854Z,45.56
2018-08-04T08:10:59.860Z,46.42
2018-08-04T08:11:59.727Z,46.42
2018-08-04T08:12:59.660Z,46.15
2018-08-04T08:13:59.599Z,46.54
2018-08-04T08:16:41.899Z,44.45
2018-08-04T08:17:41.853Z,44.47
2018-08-04T08:18:41.818Z,43.96
2018-08-04T08:19:41.739Z,43.98
2018-08-04T08:20:41.633Z,43.86
2018-08-04T08:21:41.573Z,44.68
2018-08-04T08:22:41.528Z,44.70
2018-08-04T08:23:41.441Z,44.84
2018-08-04T08:24:41.407Z,44.55
2018-08-04T08:27:23.424Z,42.45
2018-08-04T08:28:23.366Z,42.33
2018-08-04T08:29:23.291Z,43.49
2018-08-04T08:30:23.244Z,43.14
2018-08-04T08:31:23.221Z,43.72
2018-08-04T08:32:23.076Z,45.05
2018-08-04T08:33:23.033Z,46.15
2018-08-04T08:34:22.999Z,45.70
2018-08-04T08:35:22.876Z,44.45
2018-08-04T08:36:22.839Z,43.88
2018-08-04T08:37:22.760Z,43.39
2018-08-04T08:40:04.930Z,43.74
2018-08-04T08:41:04.863Z,43.88
2018-08-04T08:42:04.783Z,42.16
2018-08-04T08:44:46.956Z,41.31
2018-08-04T08:45:46.862Z,41.09
2018-08-04T08:46:46.793Z,41.71
2018-08-04T08:47:46.730Z,40.94
2018-08-04T08:48:46.664Z,39.78
2018-08-04T08:49:46.642Z,39.05
2018-08-04T08:50:46.529Z,39.80
2018-08-04T08:51:46.486Z,40.76
2018-08-04T08:52:46.405Z,40.41
2018-08-04T08:53:46.423Z,40.88
2018-08-04T08:54:46.260Z,40.35
2018-08-04T08:55:46.225Z,42.00
2018-08-04T08:56:46.138Z,41.08
2018-08-04T08:57:46.182Z,40.80
2018-08-04T08:58:46.012Z,39.34
2018-08-04T08:59:45.973Z,39.56
2018-08-04T09:00:45.925Z,39.23
2018-08-04T09:01:45.831Z,40.48
2018-08-04T09:02:45.753Z,39.54
2018-08-04T09:03:45.695Z,39.15
2018-08-04T09:04:45.626Z,39.42
2018-08-04T09:05:46.601Z,38.18
2018-08-04T09:06:45.494Z,37.59
2018-08-04T09:07:45.457Z,37.10
2018-08-04T09:08:45.460Z,37.41
2018-08-04T09:09:45.354Z,36.13
2018-08-04T09:10:45.272Z,36.17
2018-08-04T09:11:45.207Z,35.89
2018-08-04T09:12:45.109Z,34.72
2018-08-04T09:13:45.070Z,34.55
2018-08-04T09:14:44.997Z,34.82
2018-08-04T09:15:45.029Z,34.61
2018-08-04T09:16:44.882Z,35.08
2018-08-04T09:17:44.810Z,35.10
2018-08-04T09:18:44.738Z,35.20
2018-08-04T09:19:44.747Z,35.18
2018-08-04T09:20:44.643Z,35.69
2018-08-04T09:21:44.559Z,34.71
2018-08-04T09:22:44.499Z,35.08
2018-08-04T09:23:44.449Z,36.05
2018-08-04T09:24:44.360Z,36.07
2018-08-04T09:25:44.323Z,36.22
2018-08-04T09:26:44.259Z,37.07
2018-08-04T09:27:44.188Z,37.22
2018-08-04T09:28:44.107Z,36.92
2018-08-04T09:31:26.455Z,35.79
2018-08-04T09:34:08.462Z,35.18
2018-08-04T09:36:50.482Z,34.72
2018-08-04T09:37:50.365Z,34.72
2018-08-04T09:38:50.308Z,35.89
2018-08-04T09:39:50.251Z,34.79
2018-08-04T09:40:50.179Z,35.20
2018-08-04T09:41:50.282Z,35.20
2018-08-04T09:42:50.057Z,34.72
2018-08-04T09:43:50.005Z,34.25
2018-08-04T09:44:49.934Z,34.17
2018-08-04T09:45:49.880Z,33.20
2018-08-04T09:46:49.832Z,33.49
2018-08-04T09:47:49.763Z,33.61
2018-08-04T09:48:49.681Z,33.29
2018-08-04T09:49:49.633Z,33.69
2018-08-04T09:50:49.580Z,33.47
2018-08-04T09:51:49.541Z,33.87
2018-08-04T09:52:49.436Z,34.25
2018-08-04T09:53:49.417Z,34.76
2018-08-04T09:54:49.324Z,34.33
2018-08-04T09:55:49.260Z,34.53
2018-08-04T09:56:49.213Z,34.51
2018-08-04T09:57:49.180Z,34.99
2018-08-04T09:58:49.076Z,35.77
2018-08-04T09:59:49.015Z,35.10
2018-08-04T10:00:48.960Z,34.53
2018-08-04T10:01:48.890Z,34.69
2018-08-04T10:02:48.919Z,35.77
2018-08-04T10:03:48.800Z,35.86
2018-08-04T10:04:48.712Z,35.77
2018-08-04T10:05:48.669Z,35.20
2018-08-04T10:06:48.589Z,35.02
2018-08-04T10:07:48.572Z,34.34
2018-08-04T10:08:48.484Z,35.00
2018-08-04T10:09:48.407Z,36.30
2018-08-04T10:10:48.347Z,37.67
2018-08-04T10:13:30.547Z,35.88
2018-08-04T10:14:30.399Z,35.10
2018-08-04T10:15:30.323Z,34.53
2018-08-04T10:16:30.262Z,34.53
2018-08-04T10:17:30.213Z,35.22
2018-08-04T10:18:30.140Z,35.02
2018-08-04T10:19:30.086Z,34.84
2018-08-04T10:22:11.969Z,34.25
2018-08-04T10:23:11.909Z,34.72
2018-08-04T10:24:11.889Z,34.72
2018-08-04T10:25:11.774Z,34.99
2018-08-04T10:26:11.709Z,34.82
2018-08-04T10:27:11.654Z,34.61
2018-08-04T10:28:11.598Z,34.63
2018-08-04T10:29:11.535Z,34.53
2018-08-04T10:30:11.459Z,34.81
2018-08-04T10:31:11.414Z,35.00
2018-08-04T10:32:11.452Z,34.63
2018-08-04T10:33:11.356Z,34.25
2018-08-04T10:34:11.226Z,33.37
2018-08-04T10:35:11.177Z,34.46
2018-08-04T10:36:11.098Z,33.85
2018-08-04T10:37:11.079Z,33.37
2018-08-04T10:38:11.005Z,33.46
2018-08-04T10:39:10.913Z,34.34
2018-08-04T10:40:10.920Z,34.39
2018-08-04T10:41:10.820Z,35.48
2018-08-04T10:42:10.753Z,34.97
2018-08-04T10:43:10.706Z,35.97
2018-08-04T10:44:10.611Z,35.77
2018-08-04T10:45:10.585Z,34.41
2018-08-04T10:46:10.500Z,35.31
2018-08-04T10:48:52.449Z,35.20
2018-08-04T10:49:52.481Z,34.63
2018-08-04T10:50:52.335Z,35.02
2018-08-04T10:51:52.385Z,34.55
2018-08-04T10:52:52.213Z,33.28
2018-08-04T10:53:52.175Z,33.21
2018-08-04T10:54:52.088Z,33.11
2018-08-04T10:55:52.047Z,33.69
2018-08-04T10:56:51.976Z,35.08
2018-08-04T10:57:51.926Z,35.76
2018-08-04T10:58:51.960Z,36.51
2018-08-04T10:59:51.798Z,35.86
2018-08-04T11:00:51.719Z,35.66
2018-08-04T11:01:51.678Z,35.25
2018-08-04T11:02:51.599Z,35.64
2018-08-04T11:03:51.641Z,35.80
2018-08-04T11:04:51.508Z,36.59
2018-08-04T11:05:51.471Z,37.38
2018-08-04T11:06:51.370Z,35.96
2018-08-04T11:07:51.330Z,35.18
2018-08-04T11:08:51.301Z,34.53
2018-08-04T11:09:51.242Z,34.43
2018-08-04T11:10:51.126Z,34.63
2018-08-04T11:13:32.955Z,35.05
2018-08-04T11:16:15.002Z,35.68
2018-08-04T11:17:14.905Z,35.14
2018-08-04T11:18:14.975Z,35.27
2018-08-04T11:19:14.785Z,35.88
2018-08-04T11:20:14.736Z,35.71
2018-08-04T11:21:14.657Z,34.76
2018-08-04T11:22:14.594Z,34.76
2018-08-04T11:23:14.543Z,34.43
2018-08-04T11:24:14.569Z,34.92
2018-08-04T11:25:15.451Z,35.15
2018-08-04T11:26:14.392Z,34.51
2018-08-04T11:27:14.302Z,35.18
2018-08-04T11:28:14.235Z,35.18
2018-08-04T11:29:14.185Z,35.27
2018-08-04T11:30:14.137Z,35.12
2018-08-04T11:31:15.090Z,34.92
2018-08-04T11:32:14.000Z,34.13
2018-08-04T11:33:13.945Z,34.31
2018-08-04T11:34:13.868Z,35.25
2018-08-04T11:35:13.839Z,34.69
2018-08-04T11:36:13.836Z,34.61
2018-08-04T11:37:13.714Z,34.69
2018-08-04T11:38:13.632Z,35.08
2018-08-04T11:40:55.992Z,36.32
2018-08-04T11:41:55.932Z,35.84
2018-08-04T11:42:55.851Z,35.77
2018-08-04T11:43:55.803Z,34.39
2018-08-04T11:44:55.715Z,35.38
2018-08-04T11:45:55.696Z,36.30
2018-08-04T11:46:55.605Z,37.57
2018-08-04T11:49:37.470Z,35.96
2018-08-04T11:50:37.412Z,35.88
2018-08-04T11:51:37.408Z,35.89
2018-08-04T11:52:37.288Z,34.99
2018-08-04T11:53:37.219Z,35.17
2018-08-04T11:54:37.163Z,35.56
2018-08-04T11:55:37.102Z,35.07
2018-08-04T11:56:38.077Z,35.74
2018-08-04T11:57:36.973Z,36.04
2018-08-04T11:58:36.920Z,36.02
2018-08-04T11:59:36.870Z,36.23
2018-08-04T12:00:36.817Z,36.27
2018-08-04T12:01:36.770Z,35.08
2018-08-04T12:02:36.691Z,35.79
2018-08-04T12:03:36.629Z,34.82
2018-08-04T12:04:36.563Z,35.18
2018-08-04T12:05:36.492Z,35.77
2018-08-04T12:06:36.565Z,34.49
2018-08-04T12:07:36.366Z,34.99
2018-08-04T12:08:36.309Z,34.89
2018-08-04T12:09:36.239Z,34.69
2018-08-04T12:10:36.198Z,34.69
2018-08-04T12:11:36.164Z,34.69
2018-08-04T12:12:36.062Z,34.18
2018-08-04T12:13:35.987Z,34.56
2018-08-04T12:14:35.942Z,34.36
2018-08-04T12:15:35.871Z,34.56
2018-08-04T12:18:18.004Z,36.00
2018-08-04T12:19:17.905Z,35.69
2018-08-04T12:20:17.866Z,36.05
2018-08-04T12:21:17.778Z,37.38
2018-08-04T12:22:17.730Z,37.48
2018-08-04T12:23:17.665Z,37.88
2018-08-04T12:24:17.584Z,37.68
2018-08-04T12:25:17.561Z,37.86
2018-08-04T12:26:17.440Z,37.86
2018-08-04T12:27:17.413Z,37.98
2018-08-04T12:28:17.309Z,37.78
2018-08-04T12:29:17.295Z,37.68
2018-08-04T12:30:17.186Z,37.99
2018-08-04T12:31:17.125Z,37.42
2018-08-04T12:32:17.069Z,37.52
2018-08-04T12:33:16.984Z,36.74
2018-08-04T12:34:16.897Z,36.15
2018-08-04T12:35:16.846Z,36.34
2018-08-04T12:36:16.763Z,37.24
2018-08-04T12:37:16.741Z,36.28
2018-08-04T12:38:16.640Z,35.67
2018-08-04T12:40:58.476Z,35.66
2018-08-04T12:41:58.431Z,35.64
2018-08-04T12:42:58.380Z,36.22
2018-08-04T12:43:58.285Z,36.62
2018-08-04T12:44:58.207Z,36.93
2018-08-04T12:45:58.149Z,36.85
2018-08-04T12:46:58.112Z,37.03
2018-08-04T12:47:59.024Z,36.75
2018-08-04T12:48:57.945Z,36.65
2018-08-04T12:49:57.882Z,36.95
2018-08-04T12:50:57.796Z,36.16
2018-08-04T12:51:57.748Z,37.80
2018-08-04T12:52:57.688Z,36.82
2018-08-04T12:53:57.619Z,37.62
2018-08-04T12:54:57.525Z,38.01
2018-08-04T12:55:57.458Z,37.23
2018-08-04T12:56:57.427Z,37.05
2018-08-04T12:59:39.522Z,37.55
2018-08-04T13:00:39.425Z,36.95
2018-08-04T13:01:39.390Z,36.65
2018-08-04T13:02:39.363Z,37.26
2018-08-04T13:03:39.238Z,37.36
2018-08-04T13:04:39.167Z,37.05
2018-08-04T13:05:39.096Z,37.44
2018-08-04T13:06:39.029Z,37.54
2018-08-04T13:07:39.084Z,37.44
2018-08-04T13:08:39.964Z,37.74
2018-08-04T13:09:38.821Z,37.54
2018-08-04T13:10:38.733Z,37.84
2018-08-04T13:11:38.666Z,36.97
2018-08-04T13:12:38.611Z,37.15
2018-08-04T13:13:38.546Z,37.05
2018-08-04T13:14:38.485Z,36.95
2018-08-04T13:15:38.384Z,37.36
2018-08-04T13:16:38.326Z,37.07
2018-08-04T13:17:38.251Z,37.55
2018-08-04T13:18:38.205Z,37.15
2018-08-04T13:19:38.242Z,37.82
2018-08-04T13:20:38.047Z,38.58
2018-08-04T13:21:37.978Z,38.48
2018-08-04T13:22:37.911Z,38.31
2018-08-04T13:23:37.841Z,37.82
2018-08-04T13:24:38.802Z,37.92
2018-08-04T13:25:37.706Z,38.01
2018-08-04T13:26:37.633Z,37.80
2018-08-04T13:27:37.579Z,38.09
2018-08-04T13:28:37.519Z,38.46
2018-08-04T13:29:37.472Z,37.99
2018-08-04T13:32:19.507Z,38.21
2018-08-04T13:33:19.432Z,38.32
2018-08-04T13:34:19.363Z,38.34
2018-08-04T13:35:19.349Z,37.65
2018-08-04T13:36:19.242Z,37.85
2018-08-04T13:39:01.544Z,38.11
2018-08-04T13:40:01.474Z,38.01
2018-08-04T13:41:01.365Z,38.21
2018-08-04T13:42:01.297Z,38.40
2018-08-04T13:43:01.223Z,38.21
2018-08-04T13:45:43.533Z,38.98
2018-08-04T13:48:25.506Z,39.76
2018-08-04T13:49:25.575Z,39.09
2018-08-04T13:50:25.490Z,39.66
2018-08-04T13:51:25.308Z,39.47
2018-08-04T13:52:25.252Z,40.03
2018-08-04T13:53:25.172Z,40.45
2018-08-04T13:54:25.086Z,40.25
2018-08-04T13:55:25.089Z,40.06
2018-08-04T13:56:24.968Z,40.53
2018-08-04T13:57:24.906Z,40.55
2018-08-04T13:58:24.806Z,40.82
2018-08-04T13:59:24.758Z,40.84
2018-08-04T14:00:24.703Z,40.53
2018-08-04T14:01:24.658Z,40.74
2018-08-04T14:02:24.551Z,40.35
2018-08-04T14:05:06.516Z,40.45
2018-08-04T14:06:06.474Z,40.64
2018-08-04T14:07:06.382Z,40.35
2018-08-04T14:08:06.319Z,40.35
2018-08-04T14:09:06.234Z,40.43
2018-08-04T14:10:06.179Z,40.63
2018-08-04T14:11:06.156Z,41.02
2018-08-04T14:12:06.099Z,40.25
2018-08-04T14:13:05.958Z,40.64
2018-08-04T14:14:05.899Z,40.94
2018-08-04T14:15:05.821Z,40.64
2018-08-04T14:17:48.175Z,40.45
2018-08-04T14:20:30.015Z,40.55
2018-08-04T14:21:29.968Z,40.16
2018-08-04T14:22:29.899Z,40.16
2018-08-04T14:23:29.814Z,40.06
2018-08-04T14:24:29.750Z,40.25
2018-08-04T14:25:29.701Z,40.63
2018-08-04T14:26:29.604Z,40.92
2018-08-04T14:27:29.565Z,40.92
2018-08-04T14:28:29.534Z,40.72
2018-08-04T14:29:29.409Z,40.51
2018-08-04T14:30:29.331Z,40.80
2018-08-04T14:31:29.271Z,41.00
2018-08-04T14:32:29.225Z,42.18
2018-08-04T14:33:29.153Z,42.08
2018-08-04T14:34:29.048Z,42.35
2018-08-04T14:37:11.036Z,42.43
2018-08-04T14:38:11.010Z,43.13
2018-08-04T14:39:10.889Z,42.35
2018-08-04T14:40:10.822Z,42.76
2018-08-04T14:41:10.757Z,42.29
2018-08-04T14:42:10.696Z,41.90
2018-08-04T14:43:10.634Z,42.19
2018-08-04T14:45:52.521Z,41.43
2018-08-04T14:46:52.473Z,42.11
2018-08-04T14:47:52.430Z,41.63
2018-08-04T14:50:34.538Z,42.10
2018-08-04T14:53:16.578Z,42.10
2018-08-04T14:55:58.534Z,43.45
2018-08-04T14:58:40.578Z,42.76
2018-08-04T15:01:22.553Z,43.13
2018-08-04T15:02:22.474Z,43.13
2018-08-04T15:03:22.416Z,43.13
2018-08-04T15:04:22.359Z,43.04
2018-08-04T15:05:22.265Z,43.52
2018-08-04T15:06:22.203Z,43.33
2018-08-04T15:07:22.112Z,43.60
2018-08-04T15:08:23.090Z,43.51
2018-08-04T15:09:21.981Z,44.02
2018-08-04T15:10:21.935Z,43.82
2018-08-04T15:11:21.840Z,43.92
2018-08-04T15:12:21.792Z,43.94
2018-08-04T15:13:21.722Z,43.35
2018-08-04T15:14:21.674Z,43.45
2018-08-04T15:15:21.573Z,43.15
2018-08-04T15:18:03.549Z,43.37
2018-08-04T15:19:04.496Z,42.29
2018-08-04T15:20:03.411Z,42.39
2018-08-04T15:21:03.344Z,42.58